sensor_id;sensor_type;location;lat;lon;timestamp;P1;durP1;ratioP1;P2;durP2;ratioP2
15706;SDS011;7953;54.302;10.128;2023-03-31T00:01:12;38.50;;;9.27;;
15706;SDS011;7953;54.302;10.128;2023-03-31T00:03:41;23.13;;;9.10;;
15706;SDS011;7953;54.302;10.128;2023-03-31T00:06:08;30.23;;;9.30;;
15706;SDS011;7953;54.302;10.128;2023-03-31T00:08:36;29.77;;;9.10;;
15706;SDS011;7953;54.302;10.128;2023-03-31T00:11:05;36.30;;;9.90;;
15706;SDS011;7953;54.302;10.128;2023-03-31T00:13:32;36.40;;;9.10;;
15706;SDS011;7953;54.302;10.128;2023-03-31T00:16:00;27.80;;;7.90;;
15706;SDS011;7953;54.302;10.128;2023-03-31T00:18:28;28.17;;;8.83;;
15706;SDS011;7953;54.302;10.128;2023-03-31T00:21:04;31.87;;;7.20;;
15706;SDS011;7953;54.302;10.128;2023-03-31T00:23:33;24.83;;;7.00;;
15706;SDS011;7953;54.302;10.128;2023-03-31T00:26:00;24.60;;;6.90;;
15706;SDS011;7953;54.302;10.128;2023-03-31T00:28:27;24.07;;;6.73;;
15706;SDS011;7953;54.302;10.128;2023-03-31T00:30:58;26.10;;;6.93;;
15706;SDS011;7953;54.302;10.128;2023-03-31T00:33:26;19.33;;;6.67;;
15706;SDS011;7953;54.302;10.128;2023-03-31T00:35:53;25.40;;;7.20;;
15706;SDS011;7953;54.302;10.128;2023-03-31T00:38:22;26.27;;;6.83;;
15706;SDS011;7953;54.302;10.128;2023-03-31T00:40:49;26.60;;;7.30;;
15706;SDS011;7953;54.302;10.128;2023-03-31T00:43:23;23.97;;;6.63;;
15706;SDS011;7953;54.302;10.128;2023-03-31T00:45:54;25.43;;;8.03;;
15706;SDS011;7953;54.302;10.128;2023-03-31T00:48:25;18.93;;;5.40;;
15706;SDS011;7953;54.302;10.128;2023-03-31T00:50:53;22.20;;;5.50;;
15706;SDS011;7953;54.302;10.128;2023-03-31T00:53:24;22.67;;;6.40;;
15706;SDS011;7953;54.302;10.128;2023-03-31T00:55:56;16.37;;;5.23;;
15706;SDS011;7953;54.302;10.128;2023-03-31T00:58:27;17.57;;;5.60;;
15706;SDS011;7953;54.302;10.128;2023-03-31T01:00:57;25.33;;;5.87;;
15706;SDS011;7953;54.302;10.128;2023-03-31T01:03:26;23.27;;;6.80;;
15706;SDS011;7953;54.302;10.128;2023-03-31T01:05:54;28.23;;;8.23;;
15706;SDS011;7953;54.302;10.128;2023-03-31T01:08:26;21.80;;;7.47;;
15706;SDS011;7953;54.302;10.128;2023-03-31T01:10:54;21.50;;;7.47;;
15706;SDS011;7953;54.302;10.128;2023-03-31T01:13:25;22.10;;;7.50;;
15706;SDS011;7953;54.302;10.128;2023-03-31T01:15:52;24.07;;;8.33;;
15706;SDS011;7953;54.302;10.128;2023-03-31T01:18:20;19.60;;;8.23;;
15706;SDS011;7953;54.302;10.128;2023-03-31T01:20:51;26.00;;;8.97;;
15706;SDS011;7953;54.302;10.128;2023-03-31T01:23:51;28.50;;;8.77;;
15706;SDS011;7953;54.302;10.128;2023-03-31T01:26:46;31.10;;;10.20;;
15706;SDS011;7953;54.302;10.128;2023-03-31T01:29:27;30.30;;;10.17;;
15706;SDS011;7953;54.302;10.128;2023-03-31T01:32:24;25.20;;;10.13;;
15706;SDS011;7953;54.302;10.128;2023-03-31T01:38:30;24.10;;;9.27;;
15706;SDS011;7953;54.302;10.128;2023-03-31T01:41:23;26.03;;;10.47;;
15706;SDS011;7953;54.302;10.128;2023-03-31T01:43:59;28.93;;;9.87;;
15706;SDS011;7953;54.302;10.128;2023-03-31T01:46:33;34.83;;;10.60;;
15706;SDS011;7953;54.302;10.128;2023-03-31T01:49:07;39.73;;;10.30;;
15706;SDS011;7953;54.302;10.128;2023-03-31T01:51:45;32.10;;;9.63;;
15706;SDS011;7953;54.302;10.128;2023-03-31T01:54:18;36.40;;;10.43;;
15706;SDS011;7953;54.302;10.128;2023-03-31T01:56:50;29.30;;;10.20;;
15706;SDS011;7953;54.302;10.128;2023-03-31T01:59:21;28.90;;;10.20;;
15706;SDS011;7953;54.302;10.128;2023-03-31T02:01:53;32.63;;;11.27;;
15706;SDS011;7953;54.302;10.128;2023-03-31T02:04:25;30.67;;;8.97;;
15706;SDS011;7953;54.302;10.128;2023-03-31T02:06:56;33.70;;;10.63;;
15706;SDS011;7953;54.302;10.128;2023-03-31T02:09:32;26.63;;;9.53;;
15706;SDS011;7953;54.302;10.128;2023-03-31T02:12:04;36.47;;;10.80;;
15706;SDS011;7953;54.302;10.128;2023-03-31T02:14:34;30.53;;;9.60;;
15706;SDS011;7953;54.302;10.128;2023-03-31T02:17:05;24.67;;;8.30;;
15706;SDS011;7953;54.302;10.128;2023-03-31T02:19:38;24.40;;;9.30;;
15706;SDS011;7953;54.302;10.128;2023-03-31T02:22:08;23.20;;;8.37;;
15706;SDS011;7953;54.302;10.128;2023-03-31T02:24:37;28.67;;;8.13;;
15706;SDS011;7953;54.302;10.128;2023-03-31T02:27:11;30.43;;;8.77;;
15706;SDS011;7953;54.302;10.128;2023-03-31T02:29:44;25.03;;;8.90;;
15706;SDS011;7953;54.302;10.128;2023-03-31T02:32:12;34.53;;;8.63;;
15706;SDS011;7953;54.302;10.128;2023-03-31T02:34:45;17.60;;;6.80;;
15706;SDS011;7953;54.302;10.128;2023-03-31T02:37:12;32.57;;;8.03;;
15706;SDS011;7953;54.302;10.128;2023-03-31T02:39:40;24.43;;;8.07;;
15706;SDS011;7953;54.302;10.128;2023-03-31T02:42:11;25.77;;;8.27;;
15706;SDS011;7953;54.302;10.128;2023-03-31T02:44:38;22.30;;;7.30;;
15706;SDS011;7953;54.302;10.128;2023-03-31T02:47:06;19.87;;;7.63;;
15706;SDS011;7953;54.302;10.128;2023-03-31T02:49:35;22.60;;;8.00;;
15706;SDS011;7953;54.302;10.128;2023-03-31T02:57:57;25.07;;;8.93;;
15706;SDS011;7953;54.302;10.128;2023-03-31T03:00:39;26.87;;;8.07;;
15706;SDS011;7953;54.302;10.128;2023-03-31T03:03:22;21.87;;;7.40;;
15706;SDS011;7953;54.302;10.128;2023-03-31T03:06:00;24.63;;;8.60;;
15706;SDS011;7953;54.302;10.128;2023-03-31T03:08:40;28.80;;;7.60;;
15706;SDS011;7953;54.302;10.128;2023-03-31T03:11:30;26.30;;;8.17;;
15706;SDS011;7953;54.302;10.128;2023-03-31T03:14:11;26.53;;;7.37;;
15706;SDS011;7953;54.302;10.128;2023-03-31T03:16:44;27.70;;;7.13;;
15706;SDS011;7953;54.302;10.128;2023-03-31T03:19:17;29.00;;;8.23;;
15706;SDS011;7953;54.302;10.128;2023-03-31T03:21:45;22.97;;;7.97;;
15706;SDS011;7953;54.302;10.128;2023-03-31T03:24:13;25.57;;;7.13;;
15706;SDS011;7953;54.302;10.128;2023-03-31T03:26:41;25.50;;;7.83;;
15706;SDS011;7953;54.302;10.128;2023-03-31T03:29:10;23.80;;;7.70;;
15706;SDS011;7953;54.302;10.128;2023-03-31T03:31:38;26.90;;;7.47;;
15706;SDS011;7953;54.302;10.128;2023-03-31T03:34:06;23.63;;;8.53;;
15706;SDS011;7953;54.302;10.128;2023-03-31T03:36:33;26.53;;;7.90;;
15706;SDS011;7953;54.302;10.128;2023-03-31T03:39:01;26.10;;;8.43;;
15706;SDS011;7953;54.302;10.128;2023-03-31T03:41:29;27.53;;;7.77;;
15706;SDS011;7953;54.302;10.128;2023-03-31T03:43:57;31.77;;;8.47;;
15706;SDS011;7953;54.302;10.128;2023-03-31T03:46:25;31.30;;;8.30;;
15706;SDS011;7953;54.302;10.128;2023-03-31T03:48:53;21.47;;;8.77;;
15706;SDS011;7953;54.302;10.128;2023-03-31T03:51:20;27.80;;;8.33;;
15706;SDS011;7953;54.302;10.128;2023-03-31T03:53:46;23.63;;;7.33;;
15706;SDS011;7953;54.302;10.128;2023-03-31T03:56:13;22.60;;;7.67;;
15706;SDS011;7953;54.302;10.128;2023-03-31T03:58:40;28.33;;;8.10;;
15706;SDS011;7953;54.302;10.128;2023-03-31T04:01:07;25.90;;;8.13;;
15706;SDS011;7953;54.302;10.128;2023-03-31T04:03:36;22.60;;;7.83;;
15706;SDS011;7953;54.302;10.128;2023-03-31T04:06:03;26.10;;;7.10;;
15706;SDS011;7953;54.302;10.128;2023-03-31T04:08:30;29.47;;;7.67;;
15706;SDS011;7953;54.302;10.128;2023-03-31T04:10:57;22.37;;;7.00;;
15706;SDS011;7953;54.302;10.128;2023-03-31T04:13:23;27.87;;;6.63;;
15706;SDS011;7953;54.302;10.128;2023-03-31T04:15:50;25.10;;;7.37;;
15706;SDS011;7953;54.302;10.128;2023-03-31T04:18:17;25.07;;;7.13;;
15706;SDS011;7953;54.302;10.128;2023-03-31T04:20:49;21.70;;;6.90;;
15706;SDS011;7953;54.302;10.128;2023-03-31T04:23:19;25.73;;;7.50;;
15706;SDS011;7953;54.302;10.128;2023-03-31T04:25:48;21.80;;;6.73;;
15706;SDS011;7953;54.302;10.128;2023-03-31T04:28:15;25.80;;;6.53;;
15706;SDS011;7953;54.302;10.128;2023-03-31T04:30:42;21.27;;;7.20;;
15706;SDS011;7953;54.302;10.128;2023-03-31T04:33:09;23.30;;;6.57;;
15706;SDS011;7953;54.302;10.128;2023-03-31T04:35:39;29.10;;;7.37;;
15706;SDS011;7953;54.302;10.128;2023-03-31T04:38:15;26.50;;;6.57;;
15706;SDS011;7953;54.302;10.128;2023-03-31T04:40:44;29.37;;;8.07;;
15706;SDS011;7953;54.302;10.128;2023-03-31T04:43:12;24.17;;;7.37;;
15706;SDS011;7953;54.302;10.128;2023-03-31T04:45:40;22.63;;;7.03;;
15706;SDS011;7953;54.302;10.128;2023-03-31T04:48:07;35.40;;;8.37;;
15706;SDS011;7953;54.302;10.128;2023-03-31T04:50:34;28.60;;;7.23;;
15706;SDS011;7953;54.302;10.128;2023-03-31T04:53:02;29.33;;;7.63;;
15706;SDS011;7953;54.302;10.128;2023-03-31T04:55:31;27.90;;;7.50;;
15706;SDS011;7953;54.302;10.128;2023-03-31T04:57:58;24.53;;;7.03;;
15706;SDS011;7953;54.302;10.128;2023-03-31T05:00:25;23.30;;;7.23;;
15706;SDS011;7953;54.302;10.128;2023-03-31T05:02:52;23.00;;;6.57;;
15706;SDS011;7953;54.302;10.128;2023-03-31T05:05:20;25.83;;;6.80;;
15706;SDS011;7953;54.302;10.128;2023-03-31T05:07:46;19.23;;;6.73;;
15706;SDS011;7953;54.302;10.128;2023-03-31T05:10:13;32.33;;;7.13;;
15706;SDS011;7953;54.302;10.128;2023-03-31T05:12:42;26.67;;;6.00;;
15706;SDS011;7953;54.302;10.128;2023-03-31T05:15:09;27.97;;;7.20;;
15706;SDS011;7953;54.302;10.128;2023-03-31T05:17:36;23.33;;;6.07;;
15706;SDS011;7953;54.302;10.128;2023-03-31T05:20:04;28.27;;;7.27;;
15706;SDS011;7953;54.302;10.128;2023-03-31T05:22:33;24.93;;;6.27;;
15706;SDS011;7953;54.302;10.128;2023-03-31T05:25:00;25.60;;;7.27;;
15706;SDS011;7953;54.302;10.128;2023-03-31T05:27:29;24.53;;;7.30;;
15706;SDS011;7953;54.302;10.128;2023-03-31T05:29:57;27.47;;;6.57;;
15706;SDS011;7953;54.302;10.128;2023-03-31T05:32:24;25.90;;;6.77;;
15706;SDS011;7953;54.302;10.128;2023-03-31T05:34:51;35.53;;;8.70;;
15706;SDS011;7953;54.302;10.128;2023-03-31T05:37:21;19.67;;;6.17;;
15706;SDS011;7953;54.302;10.128;2023-03-31T05:39:49;19.80;;;6.27;;
15706;SDS011;7953;54.302;10.128;2023-03-31T05:42:16;26.57;;;6.10;;
15706;SDS011;7953;54.302;10.128;2023-03-31T05:44:44;27.40;;;6.17;;
15706;SDS011;7953;54.302;10.128;2023-03-31T05:47:12;26.47;;;7.43;;
15706;SDS011;7953;54.302;10.128;2023-03-31T05:49:39;24.30;;;6.57;;
15706;SDS011;7953;54.302;10.128;2023-03-31T05:52:06;32.73;;;6.63;;
15706;SDS011;7953;54.302;10.128;2023-03-31T05:54:34;27.57;;;7.20;;
15706;SDS011;7953;54.302;10.128;2023-03-31T05:57:01;26.67;;;6.63;;
15706;SDS011;7953;54.302;10.128;2023-03-31T05:59:28;27.97;;;5.70;;
15706;SDS011;7953;54.302;10.128;2023-03-31T06:01:55;22.97;;;6.63;;
15706;SDS011;7953;54.302;10.128;2023-03-31T06:04:23;24.00;;;6.07;;
15706;SDS011;7953;54.302;10.128;2023-03-31T06:06:50;26.60;;;6.43;;
15706;SDS011;7953;54.302;10.128;2023-03-31T06:09:18;25.50;;;6.53;;
15706;SDS011;7953;54.302;10.128;2023-03-31T06:11:45;26.50;;;6.37;;
15706;SDS011;7953;54.302;10.128;2023-03-31T06:14:12;26.13;;;6.17;;
15706;SDS011;7953;54.302;10.128;2023-03-31T06:16:39;26.77;;;6.93;;
15706;SDS011;7953;54.302;10.128;2023-03-31T06:19:06;33.27;;;8.80;;
15706;SDS011;7953;54.302;10.128;2023-03-31T06:21:34;32.67;;;8.23;;
15706;SDS011;7953;54.302;10.128;2023-03-31T06:24:01;31.63;;;8.67;;
15706;SDS011;7953;54.302;10.128;2023-03-31T06:26:28;21.73;;;6.20;;
15706;SDS011;7953;54.302;10.128;2023-03-31T06:28:55;22.97;;;6.37;;
15706;SDS011;7953;54.302;10.128;2023-03-31T06:31:23;22.63;;;6.90;;
15706;SDS011;7953;54.302;10.128;2023-03-31T06:33:50;21.50;;;6.40;;
15706;SDS011;7953;54.302;10.128;2023-03-31T06:36:18;24.97;;;7.53;;
15706;SDS011;7953;54.302;10.128;2023-03-31T06:38:48;31.60;;;8.10;;
15706;SDS011;7953;54.302;10.128;2023-03-31T06:41:15;27.97;;;8.07;;
15706;SDS011;7953;54.302;10.128;2023-03-31T06:43:44;26.40;;;7.20;;
15706;SDS011;7953;54.302;10.128;2023-03-31T06:46:11;19.13;;;7.43;;
15706;SDS011;7953;54.302;10.128;2023-03-31T06:48:38;22.33;;;6.97;;
15706;SDS011;7953;54.302;10.128;2023-03-31T06:51:05;22.40;;;6.07;;
15706;SDS011;7953;54.302;10.128;2023-03-31T06:53:33;27.67;;;7.73;;
15706;SDS011;7953;54.302;10.128;2023-03-31T06:56:02;30.50;;;6.97;;
15706;SDS011;7953;54.302;10.128;2023-03-31T06:58:29;21.57;;;6.63;;
15706;SDS011;7953;54.302;10.128;2023-03-31T07:00:55;25.53;;;7.23;;
15706;SDS011;7953;54.302;10.128;2023-03-31T07:03:22;22.40;;;6.43;;
15706;SDS011;7953;54.302;10.128;2023-03-31T07:05:50;21.83;;;6.33;;
15706;SDS011;7953;54.302;10.128;2023-03-31T07:08:18;19.43;;;6.63;;
15706;SDS011;7953;54.302;10.128;2023-03-31T07:10:45;21.80;;;7.97;;
15706;SDS011;7953;54.302;10.128;2023-03-31T07:13:15;24.83;;;6.87;;
15706;SDS011;7953;54.302;10.128;2023-03-31T07:15:43;21.80;;;6.30;;
15706;SDS011;7953;54.302;10.128;2023-03-31T07:18:12;29.40;;;7.77;;
15706;SDS011;7953;54.302;10.128;2023-03-31T07:20:39;29.13;;;9.33;;
15706;SDS011;7953;54.302;10.128;2023-03-31T07:23:07;23.93;;;8.43;;
15706;SDS011;7953;54.302;10.128;2023-03-31T07:25:34;19.57;;;6.87;;
15706;SDS011;7953;54.302;10.128;2023-03-31T07:28:02;17.90;;;7.23;;
15706;SDS011;7953;54.302;10.128;2023-03-31T07:30:31;19.77;;;7.07;;
15706;SDS011;7953;54.302;10.128;2023-03-31T07:32:58;22.90;;;7.27;;
15706;SDS011;7953;54.302;10.128;2023-03-31T07:35:25;24.90;;;8.27;;
15706;SDS011;7953;54.302;10.128;2023-03-31T07:37:53;23.87;;;7.47;;
15706;SDS011;7953;54.302;10.128;2023-03-31T07:40:20;22.53;;;7.70;;
15706;SDS011;7953;54.302;10.128;2023-03-31T07:42:49;29.50;;;9.27;;
15706;SDS011;7953;54.302;10.128;2023-03-31T07:45:17;26.47;;;8.83;;
15706;SDS011;7953;54.302;10.128;2023-03-31T07:47:46;20.37;;;8.97;;
15706;SDS011;7953;54.302;10.128;2023-03-31T07:50:14;25.47;;;9.37;;
15706;SDS011;7953;54.302;10.128;2023-03-31T07:52:41;20.37;;;8.97;;
15706;SDS011;7953;54.302;10.128;2023-03-31T07:55:10;19.70;;;9.33;;
15706;SDS011;7953;54.302;10.128;2023-03-31T07:57:37;27.90;;;10.10;;
15706;SDS011;7953;54.302;10.128;2023-03-31T08:00:05;22.97;;;10.90;;
15706;SDS011;7953;54.302;10.128;2023-03-31T08:02:36;22.97;;;9.90;;
15706;SDS011;7953;54.302;10.128;2023-03-31T08:05:05;21.87;;;9.87;;
15706;SDS011;7953;54.302;10.128;2023-03-31T08:07:32;20.10;;;9.93;;
15706;SDS011;7953;54.302;10.128;2023-03-31T08:09:59;19.90;;;10.50;;
15706;SDS011;7953;54.302;10.128;2023-03-31T08:12:27;23.23;;;10.20;;
15706;SDS011;7953;54.302;10.128;2023-03-31T08:14:54;26.07;;;11.23;;
15706;SDS011;7953;54.302;10.128;2023-03-31T08:17:21;21.07;;;9.63;;
15706;SDS011;7953;54.302;10.128;2023-03-31T08:19:48;18.43;;;9.77;;
15706;SDS011;7953;54.302;10.128;2023-03-31T08:22:17;20.40;;;9.10;;
15706;SDS011;7953;54.302;10.128;2023-03-31T08:24:44;18.80;;;9.37;;
15706;SDS011;7953;54.302;10.128;2023-03-31T08:27:11;17.77;;;9.47;;
15706;SDS011;7953;54.302;10.128;2023-03-31T08:29:38;20.53;;;8.87;;
15706;SDS011;7953;54.302;10.128;2023-03-31T08:32:06;23.40;;;9.17;;
15706;SDS011;7953;54.302;10.128;2023-03-31T08:34:32;17.60;;;8.33;;
15706;SDS011;7953;54.302;10.128;2023-03-31T08:37:00;15.40;;;8.57;;
15706;SDS011;7953;54.302;10.128;2023-03-31T08:39:28;18.67;;;8.83;;
15706;SDS011;7953;54.302;10.128;2023-03-31T08:41:56;20.73;;;8.70;;
15706;SDS011;7953;54.302;10.128;2023-03-31T08:44:28;23.23;;;8.73;;
15706;SDS011;7953;54.302;10.128;2023-03-31T08:46:59;17.50;;;8.30;;
15706;SDS011;7953;54.302;10.128;2023-03-31T08:49:29;25.63;;;9.60;;
15706;SDS011;7953;54.302;10.128;2023-03-31T08:52:03;24.13;;;10.40;;
15706;SDS011;7953;54.302;10.128;2023-03-31T08:54:37;19.27;;;8.93;;
15706;SDS011;7953;54.302;10.128;2023-03-31T08:57:10;18.07;;;9.67;;
15706;SDS011;7953;54.302;10.128;2023-03-31T08:59:40;19.40;;;8.97;;
15706;SDS011;7953;54.302;10.128;2023-03-31T09:02:11;24.93;;;9.43;;
15706;SDS011;7953;54.302;10.128;2023-03-31T09:04:53;22.27;;;8.47;;
15706;SDS011;7953;54.302;10.128;2023-03-31T09:07:42;19.07;;;8.70;;
15706;SDS011;7953;54.302;10.128;2023-03-31T09:10:37;19.27;;;8.83;;
15706;SDS011;7953;54.302;10.128;2023-03-31T09:13:21;20.17;;;8.57;;
15706;SDS011;7953;54.302;10.128;2023-03-31T09:15:58;18.23;;;9.23;;
15706;SDS011;7953;54.302;10.128;2023-03-31T09:18:30;18.03;;;8.97;;
15706;SDS011;7953;54.302;10.128;2023-03-31T09:21:01;24.53;;;9.67;;
15706;SDS011;7953;54.302;10.128;2023-03-31T09:23:33;22.13;;;8.97;;
15706;SDS011;7953;54.302;10.128;2023-03-31T09:26:05;15.70;;;8.47;;
15706;SDS011;7953;54.302;10.128;2023-03-31T09:28:44;20.97;;;9.17;;
15706;SDS011;7953;54.302;10.128;2023-03-31T09:31:12;19.87;;;9.30;;
15706;SDS011;7953;54.302;10.128;2023-03-31T09:33:41;22.17;;;10.00;;
15706;SDS011;7953;54.302;10.128;2023-03-31T09:36:12;19.67;;;8.53;;
15706;SDS011;7953;54.302;10.128;2023-03-31T09:38:41;18.23;;;8.73;;
15706;SDS011;7953;54.302;10.128;2023-03-31T09:41:11;18.63;;;9.93;;
15706;SDS011;7953;54.302;10.128;2023-03-31T09:43:40;19.73;;;9.50;;
15706;SDS011;7953;54.302;10.128;2023-03-31T09:46:12;17.77;;;9.27;;
15706;SDS011;7953;54.302;10.128;2023-03-31T09:48:44;21.27;;;9.40;;
15706;SDS011;7953;54.302;10.128;2023-03-31T09:51:19;17.17;;;9.80;;
15706;SDS011;7953;54.302;10.128;2023-03-31T09:53:51;20.17;;;10.30;;
15706;SDS011;7953;54.302;10.128;2023-03-31T09:56:32;16.07;;;9.47;;
15706;SDS011;7953;54.302;10.128;2023-03-31T09:59:13;21.67;;;9.80;;
15706;SDS011;7953;54.302;10.128;2023-03-31T10:01:42;20.27;;;11.53;;
15706;SDS011;7953;54.302;10.128;2023-03-31T10:04:15;22.10;;;10.67;;
15706;SDS011;7953;54.302;10.128;2023-03-31T10:06:45;18.97;;;10.63;;
15706;SDS011;7953;54.302;10.128;2023-03-31T10:09:13;31.50;;;11.80;;
15706;SDS011;7953;54.302;10.128;2023-03-31T10:11:51;21.47;;;10.33;;
15706;SDS011;7953;54.302;10.128;2023-03-31T10:14:23;21.40;;;10.80;;
15706;SDS011;7953;54.302;10.128;2023-03-31T10:16:52;21.43;;;10.97;;
15706;SDS011;7953;54.302;10.128;2023-03-31T10:19:21;16.33;;;10.20;;
15706;SDS011;7953;54.302;10.128;2023-03-31T10:21:54;16.67;;;9.47;;
15706;SDS011;7953;54.302;10.128;2023-03-31T10:24:23;17.50;;;10.10;;
15706;SDS011;7953;54.302;10.128;2023-03-31T10:26:53;16.70;;;8.93;;
15706;SDS011;7953;54.302;10.128;2023-03-31T10:29:27;18.23;;;9.87;;
15706;SDS011;7953;54.302;10.128;2023-03-31T10:32:00;18.43;;;10.60;;
15706;SDS011;7953;54.302;10.128;2023-03-31T10:34:29;12.23;;;9.13;;
15706;SDS011;7953;54.302;10.128;2023-03-31T10:36:57;16.53;;;8.67;;
15706;SDS011;7953;54.302;10.128;2023-03-31T10:39:27;14.60;;;8.50;;
15706;SDS011;7953;54.302;10.128;2023-03-31T10:41:58;12.20;;;8.03;;
15706;SDS011;7953;54.302;10.128;2023-03-31T10:44:29;14.47;;;8.60;;
15706;SDS011;7953;54.302;10.128;2023-03-31T10:47:02;10.23;;;8.27;;
15706;SDS011;7953;54.302;10.128;2023-03-31T10:49:35;12.33;;;7.77;;
15706;SDS011;7953;54.302;10.128;2023-03-31T10:52:10;14.90;;;7.03;;
15706;SDS011;7953;54.302;10.128;2023-03-31T10:54:45;7.93;;;6.27;;
15706;SDS011;7953;54.302;10.128;2023-03-31T10:57:14;7.03;;;4.50;;
15706;SDS011;7953;54.302;10.128;2023-03-31T10:59:50;11.83;;;4.70;;
15706;SDS011;7953;54.302;10.128;2023-03-31T11:02:41;7.83;;;4.40;;
15706;SDS011;7953;54.302;10.128;2023-03-31T11:05:19;9.10;;;4.40;;
15706;SDS011;7953;54.302;10.128;2023-03-31T11:07:53;10.43;;;4.90;;
15706;SDS011;7953;54.302;10.128;2023-03-31T11:10:50;8.57;;;4.40;;
15706;SDS011;7953;54.302;10.128;2023-03-31T11:13:30;9.00;;;5.33;;
15706;SDS011;7953;54.302;10.128;2023-03-31T11:16:05;8.20;;;5.50;;
15706;SDS011;7953;54.302;10.128;2023-03-31T11:18:44;8.67;;;6.67;;
15706;SDS011;7953;54.302;10.128;2023-03-31T11:21:22;7.20;;;5.73;;
15706;SDS011;7953;54.302;10.128;2023-03-31T11:23:57;8.23;;;4.43;;
15706;SDS011;7953;54.302;10.128;2023-03-31T11:26:32;9.67;;;4.90;;
15706;SDS011;7953;54.302;10.128;2023-03-31T11:29:15;7.67;;;4.83;;
15706;SDS011;7953;54.302;10.128;2023-03-31T11:31:57;9.20;;;4.30;;
15706;SDS011;7953;54.302;10.128;2023-03-31T11:37:32;8.57;;;5.73;;
15706;SDS011;7953;54.302;10.128;2023-03-31T11:40:15;8.97;;;4.70;;
15706;SDS011;7953;54.302;10.128;2023-03-31T11:43:01;7.57;;;4.50;;
15706;SDS011;7953;54.302;10.128;2023-03-31T11:45:34;6.13;;;4.17;;
15706;SDS011;7953;54.302;10.128;2023-03-31T11:48:08;7.90;;;5.10;;
15706;SDS011;7953;54.302;10.128;2023-03-31T11:50:43;14.43;;;8.90;;
15706;SDS011;7953;54.302;10.128;2023-03-31T11:53:14;18.03;;;11.20;;
15706;SDS011;7953;54.302;10.128;2023-03-31T11:55:43;26.87;;;15.97;;
15706;SDS011;7953;54.302;10.128;2023-03-31T11:58:14;28.30;;;15.53;;
15706;SDS011;7953;54.302;10.128;2023-03-31T12:00:46;15.00;;;8.03;;
15706;SDS011;7953;54.302;10.128;2023-03-31T12:03:18;17.57;;;10.57;;
15706;SDS011;7953;54.302;10.128;2023-03-31T12:05:49;22.90;;;13.27;;
15706;SDS011;7953;54.302;10.128;2023-03-31T12:08:22;14.93;;;7.60;;
15706;SDS011;7953;54.302;10.128;2023-03-31T12:10:58;20.47;;;11.67;;
15706;SDS011;7953;54.302;10.128;2023-03-31T12:16:13;17.70;;;10.53;;
15706;SDS011;7953;54.302;10.128;2023-03-31T12:18:44;5.70;;;4.13;;
15706;SDS011;7953;54.302;10.128;2023-03-31T12:21:21;4.50;;;3.33;;
15706;SDS011;7953;54.302;10.128;2023-03-31T12:23:48;4.70;;;2.50;;
15706;SDS011;7953;54.302;10.128;2023-03-31T12:26:23;3.87;;;2.70;;
15706;SDS011;7953;54.302;10.128;2023-03-31T12:29:03;3.83;;;1.80;;
15706;SDS011;7953;54.302;10.128;2023-03-31T12:31:37;6.20;;;4.33;;
15706;SDS011;7953;54.302;10.128;2023-03-31T12:34:10;4.77;;;3.17;;
15706;SDS011;7953;54.302;10.128;2023-03-31T12:36:44;2.57;;;1.80;;
15706;SDS011;7953;54.302;10.128;2023-03-31T12:39:27;3.50;;;2.13;;
15706;SDS011;7953;54.302;10.128;2023-03-31T12:42:06;3.27;;;2.60;;
15706;SDS011;7953;54.302;10.128;2023-03-31T12:44:51;2.20;;;2.00;;
15706;SDS011;7953;54.302;10.128;2023-03-31T12:47:29;3.30;;;2.03;;
15706;SDS011;7953;54.302;10.128;2023-03-31T12:50:30;1.77;;;1.67;;
15706;SDS011;7953;54.302;10.128;2023-03-31T12:53:09;1.80;;;1.70;;
15706;SDS011;7953;54.302;10.128;2023-03-31T12:55:41;2.27;;;1.70;;
15706;SDS011;7953;54.302;10.128;2023-03-31T13:01:12;2.90;;;2.37;;
15706;SDS011;7953;54.302;10.128;2023-03-31T13:03:52;2.30;;;1.60;;
15706;SDS011;7953;54.302;10.128;2023-03-31T13:06:49;4.07;;;2.10;;
15706;SDS011;7953;54.302;10.128;2023-03-31T13:09:38;4.20;;;2.70;;
15706;SDS011;7953;54.302;10.128;2023-03-31T13:12:07;3.43;;;2.80;;
15706;SDS011;7953;54.302;10.128;2023-03-31T13:14:38;4.00;;;2.10;;
15706;SDS011;7953;54.302;10.128;2023-03-31T13:17:17;3.03;;;2.57;;
15706;SDS011;7953;54.302;10.128;2023-03-31T13:19:50;2.83;;;2.33;;
15706;SDS011;7953;54.302;10.128;2023-03-31T13:22:31;3.50;;;3.00;;
15706;SDS011;7953;54.302;10.128;2023-03-31T13:27:52;3.97;;;2.87;;
15706;SDS011;7953;54.302;10.128;2023-03-31T13:33:11;3.20;;;2.40;;
15706;SDS011;7953;54.302;10.128;2023-03-31T13:35:43;3.37;;;2.30;;
15706;SDS011;7953;54.302;10.128;2023-03-31T13:38:13;2.60;;;2.33;;
15706;SDS011;7953;54.302;10.128;2023-03-31T13:40:54;2.60;;;2.40;;
15706;SDS011;7953;54.302;10.128;2023-03-31T13:46:33;3.80;;;2.47;;
15706;SDS011;7953;54.302;10.128;2023-03-31T13:52:10;4.67;;;3.10;;
15706;SDS011;7953;54.302;10.128;2023-03-31T13:54:44;3.47;;;2.83;;
15706;SDS011;7953;54.302;10.128;2023-03-31T13:57:39;5.03;;;3.00;;
15706;SDS011;7953;54.302;10.128;2023-03-31T14:00:33;3.03;;;2.67;;
15706;SDS011;7953;54.302;10.128;2023-03-31T14:03:19;3.73;;;3.43;;
15706;SDS011;7953;54.302;10.128;2023-03-31T14:05:54;3.73;;;2.93;;
15706;SDS011;7953;54.302;10.128;2023-03-31T14:08:28;3.07;;;2.73;;
15706;SDS011;7953;54.302;10.128;2023-03-31T14:11:14;3.43;;;2.97;;
15706;SDS011;7953;54.302;10.128;2023-03-31T14:13:43;4.60;;;3.07;;
15706;SDS011;7953;54.302;10.128;2023-03-31T14:16:10;3.00;;;2.67;;
15706;SDS011;7953;54.302;10.128;2023-03-31T14:18:40;3.93;;;2.90;;
15706;SDS011;7953;54.302;10.128;2023-03-31T14:21:15;2.70;;;2.50;;
15706;SDS011;7953;54.302;10.128;2023-03-31T14:23:53;3.07;;;2.67;;
15706;SDS011;7953;54.302;10.128;2023-03-31T14:26:32;4.77;;;2.93;;
15706;SDS011;7953;54.302;10.128;2023-03-31T14:29:11;3.03;;;2.77;;
15706;SDS011;7953;54.302;10.128;2023-03-31T14:31:46;4.60;;;3.50;;
15706;SDS011;7953;54.302;10.128;2023-03-31T14:34:38;5.00;;;3.27;;
15706;SDS011;7953;54.302;10.128;2023-03-31T14:37:18;3.57;;;3.07;;
15706;SDS011;7953;54.302;10.128;2023-03-31T14:39:49;3.97;;;3.27;;
15706;SDS011;7953;54.302;10.128;2023-03-31T14:42:20;7.27;;;4.83;;
15706;SDS011;7953;54.302;10.128;2023-03-31T14:44:54;4.30;;;3.57;;
15706;SDS011;7953;54.302;10.128;2023-03-31T14:47:22;4.50;;;3.77;;
15706;SDS011;7953;54.302;10.128;2023-03-31T14:49:57;9.20;;;5.70;;
15706;SDS011;7953;54.302;10.128;2023-03-31T14:52:27;15.20;;;11.40;;
15706;SDS011;7953;54.302;10.128;2023-03-31T14:54:57;17.93;;;12.40;;
15706;SDS011;7953;54.302;10.128;2023-03-31T14:57:26;5.30;;;4.80;;
15706;SDS011;7953;54.302;10.128;2023-03-31T14:59:56;5.83;;;4.50;;
15706;SDS011;7953;54.302;10.128;2023-03-31T15:02:28;4.30;;;3.53;;
15706;SDS011;7953;54.302;10.128;2023-03-31T15:04:57;6.80;;;5.53;;
15706;SDS011;7953;54.302;10.128;2023-03-31T15:07:26;6.30;;;4.37;;
15706;SDS011;7953;54.302;10.128;2023-03-31T15:09:53;9.47;;;6.70;;
15706;SDS011;7953;54.302;10.128;2023-03-31T15:12:22;5.07;;;4.53;;
15706;SDS011;7953;54.302;10.128;2023-03-31T15:14:49;5.53;;;5.00;;
15706;SDS011;7953;54.302;10.128;2023-03-31T15:17:21;6.23;;;4.53;;
15706;SDS011;7953;54.302;10.128;2023-03-31T15:19:53;7.33;;;4.03;;
15706;SDS011;7953;54.302;10.128;2023-03-31T15:22:22;5.73;;;5.13;;
15706;SDS011;7953;54.302;10.128;2023-03-31T15:24:50;5.87;;;5.13;;
15706;SDS011;7953;54.302;10.128;2023-03-31T15:27:18;3.60;;;3.23;;
15706;SDS011;7953;54.302;10.128;2023-03-31T15:29:55;3.23;;;2.73;;
15706;SDS011;7953;54.302;10.128;2023-03-31T15:32:25;4.10;;;3.43;;